createdAt,value
2022-08-02T00:00:40.675Z,23.85
2022-08-02T00:02:44.264Z,23.80
2022-08-02T00:04:46.321Z,23.76
2022-08-02T00:06:48.090Z,23.73
2022-08-02T00:08:49.783Z,23.68
2022-08-02T00:10:51.575Z,23.65
2022-08-02T00:12:53.705Z,23.64
2022-08-02T00:14:57.128Z,23.58
2022-08-02T00:16:58.830Z,23.54
2022-08-02T00:19:00.862Z,23.50
2022-08-02T00:21:02.372Z,23.47
2022-08-02T00:23:04.049Z,23.40
2022-08-02T00:25:06.185Z,23.37
2022-08-02T00:27:09.629Z,23.32
2022-08-02T00:29:11.482Z,23.30
2022-08-02T00:31:13.187Z,23.28
2022-08-02T00:33:14.787Z,23.23
2022-08-02T00:35:16.447Z,23.22
2022-08-02T00:37:18.263Z,23.20
2022-08-02T00:39:33.368Z,23.18
2022-08-02T00:41:45.666Z,23.10
2022-08-02T00:43:48.217Z,23.11
2022-08-02T00:46:02.766Z,23.05
2022-08-02T00:48:06.991Z,23.04
2022-08-02T00:50:08.937Z,23.02
2022-08-02T00:52:10.725Z,22.99
2022-08-02T00:54:12.930Z,22.97
2022-08-02T00:56:14.472Z,22.94
2022-08-02T00:58:16.638Z,22.90
2022-08-02T01:00:18.422Z,22.87
2022-08-02T01:02:20.334Z,22.84
2022-08-02T01:04:29.755Z,22.83
2022-08-02T01:06:33.838Z,22.81
2022-08-02T01:08:35.471Z,22.79
2022-08-02T01:10:37.404Z,22.77
2022-08-02T01:12:39.330Z,22.75
2022-08-02T01:14:43.163Z,22.71
2022-08-02T01:17:06.281Z,22.67
2022-08-02T01:19:24.865Z,22.66
2022-08-02T01:21:38.899Z,22.64
2022-08-02T01:23:51.513Z,22.64
2022-08-02T01:25:59.145Z,22.58
2022-08-02T01:28:38.041Z,22.51
2022-08-02T01:30:43.103Z,22.45
2022-08-02T01:32:48.906Z,22.43
2022-08-02T01:35:00.092Z,22.39
2022-08-02T01:37:31.732Z,22.33
2022-08-02T01:39:36.076Z,22.30
2022-08-02T01:41:38.681Z,22.26
2022-08-02T01:43:43.873Z,22.24
2022-08-02T01:45:46.765Z,22.23
2022-08-02T01:47:50.509Z,22.20
2022-08-02T01:49:57.441Z,22.19
2022-08-02T01:52:20.084Z,22.17
2022-08-02T01:54:25.041Z,22.14
2022-08-02T01:56:27.170Z,22.13
2022-08-02T01:58:34.981Z,22.13
2022-08-02T02:00:40.167Z,22.10
2022-08-02T02:02:47.488Z,22.09
2022-08-02T02:04:51.417Z,22.07
2022-08-02T02:06:54.015Z,22.05
2022-08-02T02:08:58.144Z,22.05
2022-08-02T02:12:09.690Z,22.04
2022-08-02T02:13:33.397Z,22.02
2022-08-02T02:15:43.240Z,21.98
2022-08-02T02:17:53.054Z,21.99
2022-08-02T02:20:20.213Z,21.97
2022-08-02T02:22:22.224Z,21.96
2022-08-02T02:24:26.257Z,21.92
2022-08-02T02:26:31.624Z,21.92
2022-08-02T02:28:37.213Z,21.89
2022-08-02T02:30:41.540Z,21.85
2022-08-02T02:32:48.818Z,21.81
2022-08-02T02:34:51.751Z,21.81
2022-08-02T02:36:55.552Z,21.79
2022-08-02T02:39:11.617Z,21.75
2022-08-02T02:41:17.431Z,21.73
2022-08-02T02:43:21.548Z,21.68
2022-08-02T02:45:24.976Z,21.67
2022-08-02T02:47:40.792Z,21.67
2022-08-02T02:49:49.156Z,21.64
2022-08-02T02:51:52.141Z,21.61
2022-08-02T02:54:30.225Z,21.59
2022-08-02T02:56:18.618Z,21.57
2022-08-02T02:58:20.531Z,21.56
2022-08-02T03:00:49.776Z,21.51
2022-08-02T03:02:51.674Z,21.50
2022-08-02T03:04:57.235Z,21.46
2022-08-02T03:07:02.552Z,21.44
2022-08-02T03:09:06.084Z,21.41
2022-08-02T03:11:09.924Z,21.40
2022-08-02T03:13:12.841Z,21.38
2022-08-02T03:15:15.417Z,21.33
2022-08-02T03:17:16.927Z,21.33
2022-08-02T03:19:20.179Z,21.31
2022-08-02T03:21:22.141Z,21.31
2022-08-02T03:23:23.664Z,21.30
2022-08-02T03:25:25.411Z,21.28
2022-08-02T03:27:26.966Z,21.27
2022-08-02T03:29:31.491Z,21.25
2022-08-02T03:31:37.262Z,21.24
2022-08-02T03:33:39.177Z,21.20
2022-08-02T03:35:42.690Z,21.20
2022-08-02T03:37:45.617Z,21.18
2022-08-02T03:39:52.833Z,21.15
2022-08-02T03:41:55.825Z,21.14
2022-08-02T03:43:58.619Z,21.12
2022-08-02T03:46:01.982Z,21.11
2022-08-02T03:48:05.404Z,21.11
2022-08-02T03:50:27.016Z,21.07
2022-08-02T03:52:29.848Z,21.08
2022-08-02T03:54:34.579Z,21.06
2022-08-02T03:56:36.770Z,21.03
2022-08-02T03:58:38.419Z,21.03
2022-08-02T04:00:40.051Z,20.99
2022-08-02T04:02:41.598Z,20.98
2022-08-02T04:04:43.472Z,20.99
2022-08-02T04:06:45.053Z,20.95
2022-08-02T04:08:46.853Z,20.93
2022-08-02T04:11:07.382Z,20.92
2022-08-02T04:13:08.817Z,20.92
2022-08-02T04:15:13.696Z,20.92
2022-08-02T04:17:18.127Z,20.92
2022-08-02T04:19:29.162Z,20.87
2022-08-02T04:21:48.785Z,20.85
2022-08-02T04:23:56.155Z,20.85
2022-08-02T04:26:00.602Z,20.84
2022-08-02T04:28:17.732Z,20.85
2022-08-02T04:30:22.009Z,20.85
2022-08-02T04:32:24.605Z,20.85
2022-08-02T04:34:26.424Z,20.87
2022-08-02T04:36:31.673Z,20.90
2022-08-02T04:38:33.656Z,20.91
2022-08-02T04:40:35.523Z,20.92
2022-08-02T04:42:37.437Z,20.94
2022-08-02T04:44:39.101Z,20.94
2022-08-02T04:46:42.091Z,20.96
2022-08-02T04:48:43.903Z,20.98
2022-08-02T04:50:45.839Z,21.01
2022-08-02T04:52:47.481Z,21.04
2022-08-02T04:54:49.256Z,21.07
2022-08-02T04:56:50.733Z,21.12
2022-08-02T04:58:52.281Z,21.14
2022-08-02T05:00:54.055Z,21.17
2022-08-02T05:02:56.935Z,21.21
2022-08-02T05:04:58.536Z,21.24
2022-08-02T05:07:00.174Z,21.28
2022-08-02T05:09:01.844Z,21.34
2022-08-02T05:11:03.587Z,21.37
2022-08-02T05:13:05.795Z,21.40
2022-08-02T05:15:09.175Z,21.44
2022-08-02T05:17:14.888Z,21.45
2022-08-02T05:19:16.458Z,21.48
2022-08-02T05:21:18.348Z,21.50
2022-08-02T05:23:20.863Z,21.53
2022-08-02T05:25:22.580Z,21.57
2022-08-02T05:27:24.158Z,21.60
2022-08-02T05:29:25.727Z,21.61
2022-08-02T05:31:27.356Z,21.64
2022-08-02T05:33:28.976Z,21.66
2022-08-02T05:35:30.689Z,21.71
2022-08-02T05:37:33.089Z,21.73
2022-08-02T05:39:36.975Z,21.77
2022-08-02T05:41:56.821Z,21.80
2022-08-02T05:43:58.491Z,21.84
2022-08-02T05:46:00.286Z,21.87
2022-08-02T05:48:05.411Z,21.90
2022-08-02T05:50:08.521Z,21.96
2022-08-02T05:52:16.907Z,21.99
2022-08-02T05:54:39.434Z,22.03
2022-08-02T05:56:59.200Z,22.09
2022-08-02T05:59:32.472Z,22.17
2022-08-02T06:01:39.081Z,22.23
2022-08-02T06:03:51.419Z,22.32
2022-08-02T06:06:05.119Z,22.42
2022-08-02T06:08:10.321Z,22.53
2022-08-02T06:10:14.390Z,22.61
2022-08-02T06:12:18.503Z,22.70
2022-08-02T06:14:20.063Z,22.82
2022-08-02T06:16:32.421Z,22.94
2022-08-02T06:18:35.746Z,23.06
2022-08-02T06:20:37.406Z,23.18
2022-08-02T06:22:42.661Z,23.30
2022-08-02T06:24:45.662Z,23.41
2022-08-02T06:26:52.765Z,23.50
2022-08-02T06:28:56.091Z,23.60
2022-08-02T06:30:59.130Z,23.71
2022-08-02T06:33:01.139Z,23.80
2022-08-02T06:35:05.354Z,23.90
2022-08-02T06:37:18.367Z,23.98
2022-08-02T06:39:46.509Z,24.04
2022-08-02T06:41:50.028Z,24.13
2022-08-02T06:44:26.166Z,24.20
2022-08-02T06:46:55.932Z,24.28
2022-08-02T06:48:47.130Z,24.33
2022-08-02T06:50:48.852Z,24.40
2022-08-02T06:52:50.442Z,24.45
2022-08-02T06:54:51.913Z,24.52
2022-08-02T06:56:53.497Z,24.59
2022-08-02T06:58:55.469Z,24.64
2022-08-02T07:00:57.346Z,24.71
2022-08-02T07:02:58.971Z,24.76
2022-08-02T07:05:00.689Z,24.82
2022-08-02T07:07:02.282Z,24.88
2022-08-02T07:09:20.743Z,24.95
2022-08-02T07:11:24.120Z,25.03
2022-08-02T07:13:25.681Z,25.13
2022-08-02T07:15:27.424Z,25.24
2022-08-02T07:17:29.810Z,25.37
2022-08-02T07:19:37.861Z,25.49
2022-08-02T07:21:55.981Z,25.63
2022-08-02T07:24:01.050Z,25.79
2022-08-02T07:26:05.341Z,25.93
2022-08-02T07:28:16.820Z,26.08
2022-08-02T07:30:25.453Z,26.23
2022-08-02T07:32:30.409Z,26.37
2022-08-02T07:34:32.178Z,26.48
2022-08-02T07:36:33.988Z,26.57
2022-08-02T07:38:35.625Z,26.65
2022-08-02T07:40:39.405Z,26.74
2022-08-02T07:42:44.728Z,26.82
2022-08-02T07:44:49.225Z,26.89
2022-08-02T07:46:51.062Z,26.93
2022-08-02T07:48:54.815Z,27.01
2022-08-02T07:50:57.289Z,27.09
2022-08-02T07:52:58.854Z,27.19
2022-08-02T07:55:00.411Z,27.28
2022-08-02T07:57:02.086Z,27.40
2022-08-02T07:59:04.740Z,27.51
2022-08-02T08:01:06.372Z,27.65
2022-08-02T08:03:07.986Z,27.77
2022-08-02T08:05:09.943Z,27.91
2022-08-02T08:07:11.984Z,28.05
2022-08-02T08:09:13.554Z,28.19
2022-08-02T08:11:15.183Z,28.31
2022-08-02T08:13:16.903Z,28.43
2022-08-02T08:15:18.598Z,28.52
2022-08-02T08:17:20.410Z,28.59
2022-08-02T08:19:21.932Z,28.64
2022-08-02T08:21:43.415Z,28.70
2022-08-02T08:23:45.508Z,28.79
2022-08-02T08:25:47.749Z,28.88
2022-08-02T08:27:52.966Z,28.96
2022-08-02T08:29:54.700Z,29.06
2022-08-02T08:31:56.277Z,29.16
2022-08-02T08:33:57.799Z,29.30
2022-08-02T08:35:59.510Z,29.43
2022-08-02T08:38:07.711Z,29.57
2022-08-02T08:40:11.202Z,29.74
2022-08-02T08:42:13.359Z,29.84
2022-08-02T08:44:15.050Z,29.97
2022-08-02T08:46:26.124Z,30.12
2022-08-02T08:48:31.962Z,30.28
2022-08-02T08:50:36.578Z,30.44
2022-08-02T08:53:07.020Z,30.58
2022-08-02T08:55:12.473Z,30.73
2022-08-02T08:57:15.145Z,30.87
2022-08-02T08:59:17.756Z,31.00
2022-08-02T09:01:20.163Z,31.12
2022-08-02T09:03:21.780Z,31.24
2022-08-02T09:05:23.596Z,31.36
2022-08-02T09:07:25.305Z,31.49
2022-08-02T09:09:26.986Z,31.59
2022-08-02T09:11:28.676Z,31.68
2022-08-02T09:13:38.161Z,31.81
2022-08-02T09:15:55.258Z,31.95
2022-08-02T09:17:56.804Z,32.10
2022-08-02T09:20:08.608Z,32.22
2022-08-02T09:22:12.432Z,32.37
2022-08-02T09:24:22.927Z,32.49
2022-08-02T09:26:24.625Z,32.61
2022-08-02T09:28:28.719Z,32.77
2022-08-02T09:30:30.691Z,32.91
2022-08-02T09:32:45.471Z,33.06
2022-08-02T09:34:53.421Z,33.19
2022-08-02T09:36:55.037Z,33.33
2022-08-02T09:39:04.186Z,33.44
2022-08-02T09:41:19.616Z,33.55
2022-08-02T09:43:21.649Z,33.67
2022-08-02T09:45:30.414Z,33.77
2022-08-02T09:47:32.469Z,33.88
2022-08-02T09:49:46.833Z,33.98
2022-08-02T09:51:56.996Z,34.09
2022-08-02T09:54:08.262Z,34.19
2022-08-02T09:56:29.218Z,34.29
2022-08-02T09:58:39.169Z,34.37
2022-08-02T10:00:55.392Z,34.47
2022-08-02T10:03:08.361Z,34.62
2022-08-02T10:05:10.345Z,34.76
2022-08-02T10:07:15.936Z,34.86
2022-08-02T10:09:18.988Z,34.97
2022-08-02T10:11:22.865Z,35.07
2022-08-02T10:13:24.647Z,35.18
2022-08-02T10:15:27.638Z,35.29
2022-08-02T10:17:29.980Z,35.41
2022-08-02T10:20:01.290Z,35.51
2022-08-02T10:21:58.490Z,35.57
2022-08-02T10:24:06.519Z,35.63
2022-08-02T10:26:08.823Z,35.72
2022-08-02T10:28:16.318Z,35.79
2022-08-02T10:30:18.456Z,35.86
2022-08-02T10:32:24.625Z,35.95
2022-08-02T10:34:36.523Z,36.03
2022-08-02T10:36:40.955Z,36.11
2022-08-02T10:38:44.541Z,36.19
2022-08-02T10:40:51.272Z,36.26
2022-08-02T10:42:54.427Z,36.31
2022-08-02T10:45:15.071Z,36.38
2022-08-02T10:47:26.409Z,36.44
2022-08-02T10:49:43.958Z,36.53
2022-08-02T10:51:54.578Z,36.60
2022-08-02T10:54:09.145Z,36.68
2022-08-02T10:56:11.625Z,36.77
2022-08-02T10:58:18.251Z,36.85
2022-08-02T11:00:22.768Z,36.91
2022-08-02T11:02:45.112Z,36.96
2022-08-02T11:04:46.736Z,36.99
2022-08-02T11:07:09.489Z,36.96
2022-08-02T11:09:31.969Z,36.98
2022-08-02T11:12:04.441Z,37.00
2022-08-02T11:14:08.768Z,37.03
2022-08-02T11:16:12.044Z,37.01
2022-08-02T11:18:14.360Z,36.99
2022-08-02T11:20:17.493Z,36.90
2022-08-02T11:22:23.845Z,36.78
2022-08-02T11:24:32.606Z,36.68
2022-08-02T11:26:34.066Z,36.55
2022-08-02T11:28:35.771Z,36.43
2022-08-02T11:30:37.652Z,36.33
2022-08-02T11:32:39.476Z,36.23
2022-08-02T11:34:43.129Z,36.12
2022-08-02T11:36:49.906Z,36.02
2022-08-02T11:39:09.031Z,35.87
2022-08-02T11:41:46.557Z,35.74
2022-08-02T11:43:41.092Z,35.63
2022-08-02T11:45:42.646Z,35.57
2022-08-02T11:47:50.448Z,35.49
2022-08-02T11:49:52.092Z,35.46
2022-08-02T11:51:57.483Z,35.46
2022-08-02T11:53:59.180Z,35.53
2022-08-02T11:56:00.744Z,35.58
2022-08-02T11:58:05.744Z,35.64
2022-08-02T12:00:26.974Z,35.67
2022-08-02T12:02:33.757Z,35.77
2022-08-02T12:04:36.589Z,35.86
2022-08-02T12:06:39.446Z,35.96
2022-08-02T12:08:41.523Z,36.04
2022-08-02T12:10:56.117Z,36.15
2022-08-02T12:13:00.147Z,36.21
2022-08-02T12:15:01.847Z,36.28
2022-08-02T12:17:22.448Z,36.34
2022-08-02T12:19:29.445Z,36.39
2022-08-02T12:21:31.003Z,36.40
2022-08-02T12:23:32.972Z,36.46
2022-08-02T12:25:37.579Z,36.50
2022-08-02T12:27:41.743Z,36.57
2022-08-02T12:29:58.071Z,36.61
2022-08-02T12:32:01.603Z,36.68
2022-08-02T12:34:15.158Z,36.72
2022-08-02T12:36:27.844Z,36.79
2022-08-02T12:38:29.631Z,36.85
2022-08-02T12:40:33.138Z,36.83
2022-08-02T12:43:05.471Z,36.76
2022-08-02T12:45:07.650Z,36.72
2022-08-02T12:47:09.776Z,36.71
2022-08-02T12:49:18.463Z,36.74
2022-08-02T12:51:23.083Z,36.75
2022-08-02T12:53:31.582Z,36.74
2022-08-02T12:56:02.237Z,36.76
2022-08-02T12:58:02.925Z,36.78
2022-08-02T13:00:05.116Z,36.83
2022-08-02T13:02:11.404Z,36.90
2022-08-02T13:04:16.326Z,36.93
2022-08-02T13:08:41.598Z,36.99
2022-08-02T13:10:43.463Z,37.01
2022-08-02T13:12:45.916Z,37.00
2022-08-02T13:14:47.559Z,36.96
2022-08-02T13:16:49.335Z,36.95
2022-08-02T13:18:51.069Z,36.96
2022-08-02T13:20:52.891Z,36.99
2022-08-02T13:22:55.891Z,37.03
2022-08-02T13:25:06.269Z,37.06
2022-08-02T13:27:09.157Z,37.06
2022-08-02T13:29:12.406Z,37.05
2022-08-02T13:31:35.552Z,37.04
2022-08-02T13:33:35.717Z,37.01
2022-08-02T13:35:37.432Z,36.97
2022-08-02T13:37:41.817Z,36.91
2022-08-02T13:39:55.334Z,36.84
2022-08-02T13:42:06.009Z,36.77
2022-08-02T13:44:10.662Z,36.70
2022-08-02T13:46:13.267Z,36.64
2022-08-02T13:48:16.934Z,36.58
2022-08-02T13:50:20.047Z,36.53
2022-08-02T13:52:21.634Z,36.48
2022-08-02T13:54:23.152Z,36.43
2022-08-02T13:56:35.445Z,36.35
2022-08-02T13:58:37.610Z,36.24
2022-08-02T14:00:39.271Z,36.15
2022-08-02T14:02:40.892Z,36.03
2022-08-02T14:04:42.439Z,35.93
2022-08-02T14:06:44.159Z,35.85
2022-08-02T14:08:45.668Z,35.79
2022-08-02T14:10:48.044Z,35.79
2022-08-02T14:12:56.679Z,35.76
2022-08-02T14:14:58.391Z,35.74
2022-08-02T14:16:59.958Z,35.72
2022-08-02T14:19:05.234Z,35.70
2022-08-02T14:21:12.366Z,35.66
2022-08-02T14:23:14.136Z,35.61
2022-08-02T14:25:15.678Z,35.50
2022-08-02T14:27:17.286Z,35.37
2022-08-02T14:29:19.024Z,35.26
2022-08-02T14:31:20.689Z,35.15
2022-08-02T14:33:23.293Z,35.01
2022-08-02T14:35:25.326Z,34.92
2022-08-02T14:37:26.903Z,34.84
2022-08-02T14:39:28.478Z,34.79
2022-08-02T14:41:59.530Z,34.73
2022-08-02T14:44:06.087Z,34.69
2022-08-02T14:46:07.717Z,34.70
2022-08-02T14:48:11.389Z,34.65
2022-08-02T14:50:14.314Z,34.65
2022-08-02T14:52:16.208Z,34.59
2022-08-02T14:54:18.370Z,34.54
2022-08-02T14:56:20.633Z,34.42
2022-08-02T14:58:22.512Z,34.33
2022-08-02T15:00:24.058Z,34.23
2022-08-02T15:02:26.177Z,34.16
2022-08-02T15:04:28.321Z,34.11
2022-08-02T15:06:35.823Z,34.08
2022-08-02T15:08:37.685Z,34.03
2022-08-02T15:10:40.413Z,34.01
2022-08-02T15:12:42.210Z,33.96
2022-08-02T15:14:44.278Z,33.94
2022-08-02T15:16:56.121Z,33.89
2022-08-02T15:18:59.123Z,33.85
2022-08-02T15:21:00.816Z,33.79
2022-08-02T15:23:09.649Z,33.75
2022-08-02T15:25:14.438Z,33.73
2022-08-02T15:27:17.000Z,33.73
2022-08-02T15:29:19.271Z,33.70
2022-08-02T15:31:32.969Z,33.67
2022-08-02T15:33:35.397Z,33.62
2022-08-02T15:35:36.978Z,33.58
2022-08-02T15:37:41.481Z,33.52
2022-08-02T15:39:43.816Z,33.45
2022-08-02T15:41:45.351Z,33.38
2022-08-02T15:44:00.033Z,33.32
2022-08-02T15:46:03.398Z,33.27
2022-08-02T15:48:05.434Z,33.22
2022-08-02T15:50:07.315Z,33.17
2022-08-02T15:52:12.656Z,33.16
2022-08-02T15:54:14.617Z,33.14
2022-08-02T15:56:16.184Z,33.12
2022-08-02T15:58:24.060Z,33.09
2022-08-02T16:00:25.686Z,33.06
2022-08-02T16:02:27.352Z,33.05
2022-08-02T16:04:29.225Z,33.04
2022-08-02T16:06:30.790Z,32.99
2022-08-02T16:08:32.419Z,32.97
2022-08-02T16:10:34.356Z,32.94
2022-08-02T16:12:36.012Z,32.91
2022-08-02T16:14:37.594Z,32.87
2022-08-02T16:16:40.261Z,32.84
2022-08-02T16:18:41.823Z,32.75
2022-08-02T16:20:43.391Z,32.69
2022-08-02T16:22:45.039Z,32.62
2022-08-02T16:24:46.821Z,32.58
2022-08-02T16:26:48.691Z,32.54
2022-08-02T16:28:51.605Z,32.50
2022-08-02T16:31:09.952Z,32.45
2022-08-02T16:33:12.399Z,32.39
2022-08-02T16:35:13.980Z,32.33
2022-08-02T16:37:16.090Z,32.29
2022-08-02T16:39:17.913Z,32.25
2022-08-02T16:41:19.613Z,32.21
2022-08-02T16:43:21.898Z,32.15
2022-08-02T16:45:23.744Z,32.11
2022-08-02T16:47:36.996Z,32.05
2022-08-02T16:50:06.720Z,32.03
2022-08-02T16:52:09.535Z,31.96
2022-08-02T16:54:11.332Z,31.94
2022-08-02T16:56:12.876Z,31.91
2022-08-02T16:58:16.500Z,31.89
2022-08-02T17:00:19.115Z,31.85
2022-08-02T17:02:21.757Z,31.82
2022-08-02T17:04:27.345Z,31.78
2022-08-02T17:06:30.357Z,31.76
2022-08-02T17:08:32.450Z,31.75
2022-08-02T17:10:34.375Z,31.71
2022-08-02T17:12:36.735Z,31.67
2022-08-02T17:14:42.088Z,31.64
2022-08-02T17:16:57.338Z,31.59
2022-08-02T17:18:59.984Z,31.56
2022-08-02T17:21:04.071Z,31.52
2022-08-02T17:23:05.769Z,31.48
2022-08-02T17:25:11.135Z,31.43
2022-08-02T17:27:13.435Z,31.38
2022-08-02T17:29:18.129Z,31.35
2022-08-02T17:31:19.854Z,31.32
2022-08-02T17:33:31.235Z,31.28
2022-08-02T17:35:52.455Z,31.28
2022-08-02T17:38:00.112Z,31.24
2022-08-02T17:40:02.351Z,31.21
2022-08-02T17:42:06.071Z,31.19
2022-08-02T17:44:08.599Z,31.16
2022-08-02T17:46:11.428Z,31.14
2022-08-02T17:48:14.867Z,31.14
2022-08-02T17:50:17.155Z,31.12
2022-08-02T17:52:51.909Z,31.09
2022-08-02T17:54:42.772Z,31.06
2022-08-02T17:56:47.437Z,31.05
2022-08-02T17:58:51.989Z,31.02
2022-08-02T18:00:56.999Z,30.99
2022-08-02T18:02:59.966Z,30.96
2022-08-02T18:05:01.853Z,30.92
2022-08-02T18:07:09.628Z,30.87
2022-08-02T18:09:12.003Z,30.82
2022-08-02T18:11:13.677Z,30.79
2022-08-02T18:13:15.867Z,30.79
2022-08-02T18:15:20.037Z,30.76
2022-08-02T18:17:22.243Z,30.75
2022-08-02T18:19:23.851Z,30.72
2022-08-02T18:21:45.629Z,30.68
2022-08-02T18:23:48.605Z,30.66
2022-08-02T18:25:55.151Z,30.64
2022-08-02T18:27:57.203Z,30.59
2022-08-02T18:30:03.957Z,30.56
2022-08-02T18:32:11.599Z,30.51
2022-08-02T18:34:13.961Z,30.47
2022-08-02T18:36:24.959Z,30.46
2022-08-02T18:38:29.354Z,30.42
2022-08-02T18:40:31.718Z,30.39
2022-08-02T18:42:33.291Z,30.37
2022-08-02T18:44:34.777Z,30.35
2022-08-02T18:46:37.179Z,30.34
2022-08-02T18:48:47.704Z,30.31
2022-08-02T18:50:49.794Z,30.30
2022-08-02T18:52:51.414Z,30.28
2022-08-02T18:54:58.098Z,30.24
2022-08-02T18:57:00.792Z,30.22
2022-08-02T18:59:07.435Z,30.19
2022-08-02T19:03:31.158Z,30.12
2022-08-02T19:05:52.229Z,30.08
2022-08-02T19:07:55.470Z,30.07
2022-08-02T19:09:57.156Z,30.01
2022-08-02T19:11:59.752Z,29.99
2022-08-02T19:14:01.426Z,29.94
2022-08-02T19:16:03.258Z,29.93
2022-08-02T19:18:05.524Z,29.90
2022-08-02T19:20:09.364Z,29.86
2022-08-02T19:22:26.582Z,29.81
2022-08-02T19:24:28.570Z,29.76
2022-08-02T19:26:31.246Z,29.70
2022-08-02T19:28:32.935Z,29.65
2022-08-02T19:30:35.368Z,29.60
2022-08-02T19:32:41.976Z,29.54
2022-08-02T19:35:03.655Z,29.48
2022-08-02T19:37:21.715Z,29.40
2022-08-02T19:39:23.220Z,29.34
2022-08-02T19:41:28.960Z,29.29
2022-08-02T19:44:25.012Z,29.23
2022-08-02T19:46:07.250Z,29.15
2022-08-02T19:48:17.384Z,29.10
2022-08-02T19:50:19.487Z,29.03
2022-08-02T19:52:27.852Z,28.97
2022-08-02T19:54:35.777Z,28.91
2022-08-02T19:56:51.929Z,28.84
2022-08-02T19:58:58.733Z,28.79
2022-08-02T20:01:00.316Z,28.73
2022-08-02T20:03:02.922Z,28.67
2022-08-02T20:05:08.072Z,28.61
2022-08-02T20:07:49.831Z,28.52
2022-08-02T20:09:46.845Z,28.45
2022-08-02T20:11:54.041Z,28.42
2022-08-02T20:13:56.243Z,28.34
2022-08-02T20:15:59.422Z,28.27
2022-08-02T20:18:01.307Z,28.22
2022-08-02T20:20:03.988Z,28.16
2022-08-02T20:22:05.969Z,28.10
2022-08-02T20:24:10.007Z,28.06
2022-08-02T20:26:11.750Z,28.01
2022-08-02T20:28:14.348Z,27.95
2022-08-02T20:30:15.923Z,27.89
2022-08-02T20:32:23.894Z,27.84
2022-08-02T20:34:26.252Z,27.78
2022-08-02T20:36:28.679Z,27.73
2022-08-02T20:38:30.848Z,27.68
2022-08-02T20:40:33.133Z,27.64
2022-08-02T20:42:34.874Z,27.58
2022-08-02T20:44:36.499Z,27.54
2022-08-02T20:46:38.115Z,27.49
2022-08-02T20:48:40.082Z,27.43
2022-08-02T20:50:54.258Z,27.39
2022-08-02T20:52:56.096Z,27.33
2022-08-02T20:54:57.837Z,27.28
2022-08-02T20:56:59.488Z,27.23
2022-08-02T20:59:15.961Z,27.17
2022-08-02T21:01:17.823Z,27.09
2022-08-02T21:03:23.081Z,27.03
2022-08-02T21:05:26.811Z,26.97
2022-08-02T21:07:47.545Z,26.92
2022-08-02T21:12:19.341Z,26.80
2022-08-02T21:14:31.162Z,26.73
2022-08-02T21:16:32.892Z,26.69
2022-08-02T21:18:39.989Z,26.62
2022-08-02T21:20:42.128Z,26.56
2022-08-02T21:22:44.617Z,26.53
2022-08-02T21:24:46.368Z,26.50
2022-08-02T21:26:49.032Z,26.44
2022-08-02T21:28:51.388Z,26.40
2022-08-02T21:30:53.060Z,26.34
2022-08-02T21:32:54.946Z,26.30
2022-08-02T21:34:58.595Z,26.27
2022-08-02T21:37:00.095Z,26.21
2022-08-02T21:39:11.455Z,26.16
2022-08-02T21:41:13.063Z,26.13
2022-08-02T21:43:14.837Z,26.06
2022-08-02T21:45:20.010Z,26.03
2022-08-02T21:47:27.621Z,26.00
2022-08-02T21:50:09.342Z,25.96
2022-08-02T21:51:52.484Z,25.91
2022-08-02T21:54:17.541Z,25.86
2022-08-02T21:56:15.738Z,25.81
2022-08-02T21:58:20.050Z,25.78
2022-08-02T22:00:28.564Z,25.73
2022-08-02T22:02:31.264Z,25.70
2022-08-02T22:04:33.078Z,25.65
2022-08-02T22:06:35.047Z,25.62
2022-08-02T22:08:38.166Z,25.56
2022-08-02T22:10:58.735Z,25.51
2022-08-02T22:13:01.514Z,25.47
2022-08-02T22:15:05.723Z,25.42
2022-08-02T22:17:13.618Z,25.38
2022-08-02T22:19:15.784Z,25.34
2022-08-02T22:21:17.509Z,25.28
2022-08-02T22:23:22.638Z,25.25
2022-08-02T22:25:40.805Z,25.20
2022-08-02T22:28:34.750Z,25.15
2022-08-02T22:30:04.872Z,25.10
2022-08-02T22:32:07.447Z,25.07
2022-08-02T22:34:11.541Z,25.04
2022-08-02T22:36:38.715Z,24.99
2022-08-02T22:38:46.608Z,24.97
2022-08-02T22:40:50.511Z,24.92
2022-08-02T22:42:54.045Z,24.86
2022-08-02T22:44:57.220Z,24.82
2022-08-02T22:46:59.415Z,24.78
2022-08-02T22:49:09.106Z,24.76
2022-08-02T22:51:30.637Z,24.69
2022-08-02T22:53:35.556Z,24.62
2022-08-02T22:55:41.366Z,24.57
2022-08-02T22:57:56.365Z,24.56
2022-08-02T22:58:57.558Z,30.16
2022-08-02T22:59:01.945Z,26.88
2022-08-02T23:00:00.035Z,24.53
2022-08-02T23:02:05.337Z,24.51
2022-08-02T23:04:06.966Z,24.48
2022-08-02T23:06:09.044Z,24.45
2022-08-02T23:08:10.760Z,24.41
2022-08-02T23:10:12.564Z,24.35
2022-08-02T23:12:18.977Z,24.32
2022-08-02T23:14:20.703Z,24.26
2022-08-02T23:16:40.783Z,24.25
2022-08-02T23:19:02.254Z,24.19
2022-08-02T23:21:04.186Z,24.13
2022-08-02T23:23:11.464Z,24.10
2022-08-02T23:25:13.528Z,24.04
2022-08-02T23:27:15.209Z,24.03
2022-08-02T23:29:16.833Z,23.99
2022-08-02T23:31:37.539Z,23.93
2022-08-02T23:34:03.608Z,23.90
2022-08-02T23:36:01.594Z,23.87
2022-08-02T23:38:03.744Z,23.84
2022-08-02T23:40:06.255Z,23.78
2022-08-02T23:42:08.383Z,23.73
2022-08-02T23:44:14.760Z,23.71
2022-08-02T23:46:17.048Z,23.69
2022-08-02T23:48:18.570Z,23.66
2022-08-02T23:50:20.252Z,23.61
2022-08-02T23:52:21.801Z,23.59
2022-08-02T23:54:25.017Z,23.54
2022-08-02T23:56:26.670Z,23.50
2022-08-02T23:58:28.641Z,23.47
